Time;durP1;ratioP1;P1;durP2;ratioP2;P2;SDS_P1;SDS_P2;PMS_P1;PMS_P2;Temp;Humidity;BMP_temperature;BMP_pressure;BME280_temperature;BME280_humidity;BME280_pressure;Samples;Min_cycle;Max_cycle;Signal;HPM_P1;HPM_P2
2023/04/30 00:02:11;;;;;;;5.13;2.58;;;18.70;1.00;;;;;;4902489;29;20094;-39
2023/04/30 00:04:38;;;;;;;5.20;2.08;;;18.70;1.00;;;;;;4895327;29;20135;-38
2023/04/30 00:07:05;;;;;;;2.63;1.88;;;18.70;1.00;;;;;;4896057;29;20105;-40
2023/04/30 00:09:31;;;;;;;4.28;2.00;;;18.70;1.00;;;;;;4883126;29;20053;-38
2023/04/30 00:11:58;;;;;;;3.50;2.50;;;18.70;1.00;;;;;;4884263;29;20498;-38
2023/04/30 00:14:25;;;;;;;4.30;2.17;;;18.70;1.00;;;;;;4895262;29;20041;-39
2023/04/30 00:16:52;;;;;;;3.40;2.05;;;18.70;1.00;;;;;;4953827;23;20052;-39
2023/04/30 00:19:18;;;;;;;3.80;2.25;;;18.70;1.00;;;;;;4889793;29;20494;-39
2023/04/30 00:21:46;;;;;;;3.28;2.13;;;18.70;1.00;;;;;;4897439;29;20049;-40
2023/04/30 00:24:13;;;;;;;3.63;2.28;;;18.70;1.00;;;;;;4896894;29;20040;-39
2023/04/30 00:26:41;;;;;;;4.00;2.13;;;18.70;1.00;;;;;;4886454;29;20037;-39
2023/04/30 00:29:08;;;;;;;3.60;2.00;;;18.60;1.00;;;;;;4885439;29;20051;-39
2023/04/30 00:31:35;;;;;;;4.03;2.60;;;18.60;1.00;;;;;;4895872;29;20052;-39
2023/04/30 00:34:02;;;;;;;2.78;1.92;;;18.60;1.00;;;;;;4887653;29;20134;-39
2023/04/30 00:36:30;;;;;;;3.97;1.85;;;18.60;1.00;;;;;;4897144;29;20072;-39
2023/04/30 00:38:57;;;;;;;3.35;2.45;;;18.60;1.00;;;;;;4895938;29;20040;-39
2023/04/30 00:41:24;;;;;;;3.97;2.60;;;18.60;1.00;;;;;;4895645;29;20044;-39
2023/04/30 00:43:51;;;;;;;5.18;2.35;;;18.60;1.00;;;;;;4895196;29;20052;-39
2023/04/30 00:46:18;;;;;;;3.63;2.20;;;18.60;1.00;;;;;;5274228;23;20027;-39
2023/04/30 00:48:45;;;;;;;4.13;2.10;;;18.60;1.00;;;;;;4903326;29;20390;-38
2023/04/30 00:51:12;;;;;;;5.35;2.53;;;18.50;1.00;;;;;;4889416;29;20124;-39
2023/04/30 00:53:40;;;;;;;3.70;2.20;;;18.50;1.00;;;;;;4887520;29;20044;-38
2023/04/30 00:56:08;;;;;;;4.82;2.30;;;18.50;1.00;;;;;;4890491;29;20393;-39
2023/04/30 00:58:35;;;;;;;3.70;2.00;;;18.50;1.00;;;;;;4894537;29;20083;-39
2023/04/30 01:01:03;;;;;;;3.38;1.85;;;18.50;1.00;;;;;;4895790;29;20096;-40
2023/04/30 01:03:30;;;;;;;5.18;2.38;;;18.50;1.00;;;;;;4893814;29;20037;-41
2023/04/30 01:05:57;;;;;;;4.60;2.70;;;18.50;1.00;;;;;;4889502;29;20501;-42
2023/04/30 01:08:25;;;;;;;4.38;2.13;;;18.50;1.00;;;;;;4895366;29;20044;-39
2023/04/30 01:11:27;;;;;;;5.20;2.47;;;18.50;1.00;;;;;;4896988;29;20505;-39
2023/04/30 01:14:08;;;;;;;2.63;1.80;;;18.50;1.00;;;;;;4895113;29;20044;-42
2023/04/30 01:16:42;;;;;;;5.70;2.28;;;18.50;1.00;;;;;;4895281;29;20053;-40
2023/04/30 01:19:27;;;;;;;6.43;2.35;;;18.50;1.00;;;;;;4963564;23;20064;-40
2023/04/30 01:22:00;;;;;;;3.50;1.98;;;18.50;1.00;;;;;;4890072;29;20072;-40
2023/04/30 01:25:04;;;;;;;3.67;2.30;;;18.40;1.00;;;;;;4886400;29;20072;-39
2023/04/30 01:27:51;;;;;;;4.18;2.05;;;18.40;1.00;;;;;;4893793;29;20108;-41
2023/04/30 01:30:21;;;;;;;4.82;2.47;;;18.40;1.00;;;;;;4893851;29;20056;-39
2023/04/30 01:32:48;;;;;;;4.88;2.20;;;18.40;1.00;;;;;;4895751;29;20056;-40
2023/04/30 01:35:15;;;;;;;3.38;1.98;;;18.40;1.00;;;;;;4895269;29;20071;-37
2023/04/30 01:38:09;;;;;;;4.32;2.03;;;18.40;1.00;;;;;;4885169;29;20045;-41
2023/04/30 01:40:46;;;;;;;4.63;2.20;;;18.40;1.00;;;;;;4897521;29;20112;-37
2023/04/30 01:43:22;;;;;;;3.53;2.40;;;18.40;1.00;;;;;;4886237;29;20049;-37
2023/04/30 01:46:26;;;;;;;4.18;2.22;;;18.40;1.00;;;;;;4890673;29;20116;-39
2023/04/30 01:49:04;;;;;;;4.75;2.67;;;18.40;1.00;;;;;;4932416;23;20033;-39
2023/04/30 01:51:47;;;;;;;2.97;1.90;;;18.30;1.00;;;;;;4886473;29;20101;-41
2023/04/30 01:54:34;;;;;;;4.43;2.33;;;18.30;1.00;;;;;;4881249;29;20049;-38
2023/04/30 01:57:16;;;;;;;4.03;2.55;;;18.30;1.00;;;;;;4886496;29;20053;-38
2023/04/30 01:59:44;;;;;;;3.25;2.10;;;18.30;1.00;;;;;;4876171;29;20420;-38
2023/04/30 02:02:11;;;;;;;3.05;1.95;;;18.30;1.00;;;;;;4892179;29;20041;-38
2023/04/30 02:04:38;;;;;;;4.07;2.17;;;18.30;1.00;;;;;;4869830;29;20037;-38
2023/04/30 02:07:05;;;;;;;4.38;2.42;;;18.30;1.00;;;;;;4886354;29;20162;-38
2023/04/30 02:09:31;;;;;;;7.18;2.50;;;18.30;1.00;;;;;;4876135;29;20056;-38
2023/04/30 02:11:58;;;;;;;3.97;2.45;;;18.30;1.00;;;;;;4895371;29;20137;-39
2023/04/30 02:14:25;;;;;;;3.00;2.20;;;18.30;1.00;;;;;;4879177;29;20457;-39
2023/04/30 02:16:52;;;;;;;3.28;2.28;;;18.30;1.00;;;;;;4880900;29;20069;-38
2023/04/30 02:19:45;;;;;;;3.72;2.20;;;18.30;1.00;;;;;;4950731;23;20041;31
2023/04/30 02:22:11;;;;;;;4.03;2.22;;;18.20;1.00;;;;;;4840364;29;20405;-39
2023/04/30 02:24:38;;;;;;;4.03;2.25;;;18.20;1.00;;;;;;4846903;29;20042;-39
2023/04/30 02:27:05;;;;;;;4.13;2.70;;;18.20;1.00;;;;;;4855560;29;20045;-39
2023/04/30 02:29:32;;;;;;;4.13;1.90;;;18.20;1.00;;;;;;4854309;29;20045;-39
2023/04/30 02:31:59;;;;;;;4.53;1.80;;;18.20;1.00;;;;;;4863103;29;20476;-41
2023/04/30 02:34:26;;;;;;;4.13;2.53;;;18.20;1.00;;;;;;4863847;29;20073;-39
2023/04/30 02:36:53;;;;;;;6.38;1.83;;;18.20;1.00;;;;;;4862452;29;20383;-40
2023/04/30 02:39:20;;;;;;;4.90;2.08;;;18.20;1.00;;;;;;4853621;29;20049;-39
2023/04/30 02:41:46;;;;;;;4.03;1.95;;;18.20;1.00;;;;;;4863271;29;20053;-39
2023/04/30 02:44:14;;;;;;;3.10;1.92;;;18.20;1.00;;;;;;4862317;29;20049;-39
2023/04/30 02:46:40;;;;;;;2.75;1.65;;;18.20;1.00;;;;;;4862722;29;20049;-39
2023/04/30 02:49:07;;;;;;;3.78;1.98;;;18.20;1.00;;;;;;4862867;29;20041;-40
2023/04/30 02:51:34;;;;;;;3.78;2.53;;;18.10;1.00;;;;;;4891785;23;20128;-42
2023/04/30 02:54:00;;;;;;;3.63;2.15;;;18.10;1.00;;;;;;4874113;29;20041;-38
2023/04/30 02:56:27;;;;;;;3.30;1.90;;;18.10;1.00;;;;;;4858726;29;20093;-38
2023/04/30 02:58:54;;;;;;;2.72;1.73;;;18.10;1.00;;;;;;4879058;29;20045;-38
2023/04/30 03:01:21;;;;;;;3.80;2.13;;;18.10;1.00;;;;;;4861524;29;20042;-40
2023/04/30 03:03:48;;;;;;;3.90;1.83;;;18.10;1.00;;;;;;4878800;29;20079;-38
2023/04/30 03:06:15;;;;;;;4.07;1.95;;;18.10;1.00;;;;;;4879366;29;20111;-39
2023/04/30 03:08:41;;;;;;;3.13;1.95;;;18.10;1.00;;;;;;4857610;29;20136;-38
2023/04/30 03:11:08;;;;;;;2.60;1.73;;;18.10;1.00;;;;;;4880228;29;20057;-39
2023/04/30 03:13:35;;;;;;;3.53;2.00;;;18.10;1.00;;;;;;4872305;29;20045;-41
2023/04/30 03:16:05;;;;;;;4.00;1.55;;;18.10;1.00;;;;;;4875027;29;20083;-39
2023/04/30 03:18:32;;;;;;;2.83;1.77;;;18.10;1.00;;;;;;4862277;29;20094;-39
2023/04/30 03:20:59;;;;;;;4.87;2.27;;;18.10;1.00;;;;;;5138465;23;20027;-39
2023/04/30 03:23:27;;;;;;;5.00;2.30;;;18.00;1.00;;;;;;4890701;29;20052;-41
2023/04/30 03:25:53;;;;;;;3.15;1.65;;;18.00;1.00;;;;;;4889529;29;20128;-40
2023/04/30 03:28:21;;;;;;;2.50;1.65;;;18.00;1.00;;;;;;4882795;29;20045;-39
2023/04/30 03:30:47;;;;;;;3.85;1.73;;;18.00;1.00;;;;;;4901105;29;20048;-37
2023/04/30 03:33:14;;;;;;;4.72;1.90;;;18.00;1.00;;;;;;4887138;29;20048;-38
2023/04/30 03:35:41;;;;;;;2.70;1.60;;;18.00;1.00;;;;;;4890078;29;20056;-41
2023/04/30 03:38:08;;;;;;;2.85;1.70;;;18.00;1.00;;;;;;4893926;29;20049;-39
2023/04/30 03:40:35;;;;;;;2.60;1.70;;;18.00;1.00;;;;;;4890850;29;20048;-39
2023/04/30 03:43:02;;;;;;;4.07;1.90;;;18.00;1.00;;;;;;4900158;29;20045;-40
2023/04/30 03:45:30;;;;;;;3.13;1.65;;;18.00;1.00;;;;;;4890523;29;20573;-39
2023/04/30 03:47:56;;;;;;;2.05;1.58;;;18.00;1.00;;;;;;4893020;29;20123;-39
2023/04/30 03:50:23;;;;;;;2.22;1.40;;;18.00;1.00;;;;;;4885482;29;20485;-42
2023/04/30 03:52:50;;;;;;;2.90;1.60;;;17.90;1.00;;;;;;4897593;29;20073;-39
2023/04/30 03:55:18;;;;;;;2.92;1.50;;;17.90;1.00;;;;;;4923891;23;20048;-39
2023/04/30 03:57:45;;;;;;;1.75;1.30;;;17.90;1.00;;;;;;4894385;29;20049;-39
2023/04/30 04:00:12;;;;;;;2.42;1.52;;;17.90;1.00;;;;;;4894599;29;20050;-39
2023/04/30 04:02:39;;;;;;;2.10;1.48;;;17.90;1.00;;;;;;4901851;29;20052;-39
2023/04/30 04:05:09;;;;;;;3.95;1.70;;;17.90;1.00;;;;;;4896462;29;20048;-39
2023/04/30 04:07:36;;;;;;;2.25;1.45;;;17.90;1.00;;;;;;4901240;29;20096;-39
2023/04/30 04:10:03;;;;;;;3.35;1.58;;;17.90;1.00;;;;;;4901166;29;20139;-38
2023/04/30 04:12:31;;;;;;;5.78;1.60;;;17.90;1.00;;;;;;4901979;29;20040;-38
2023/04/30 04:14:57;;;;;;;5.07;1.80;;;17.90;1.00;;;;;;4894180;29;20493;-38
2023/04/30 04:17:24;;;;;;;4.07;1.60;;;17.80;1.00;;;;;;4895536;29;20052;-38
2023/04/30 04:19:51;;;;;;;3.17;1.73;;;17.80;1.00;;;;;;4883912;29;20132;-39
2023/04/30 04:22:18;;;;;;;2.08;1.30;;;17.80;1.00;;;;;;4881675;29;20100;-38
2023/04/30 04:24:46;;;;;;;1.90;1.45;;;17.80;1.00;;;;;;4894178;29;20049;-38
2023/04/30 04:27:19;;;;;;;3.67;1.52;;;17.80;1.00;;;;;;4895881;29;20041;-38
2023/04/30 04:29:46;;;;;;;2.13;1.38;;;17.80;1.00;;;;;;4891928;29;20109;-39
2023/04/30 04:32:13;;;;;;;1.77;1.38;;;17.80;1.00;;;;;;4899389;29;20044;-39
2023/04/30 04:34:42;;;;;;;2.97;1.60;;;17.80;1.00;;;;;;4892357;29;20480;-38
2023/04/30 04:37:09;;;;;;;2.13;1.10;;;17.80;1.00;;;;;;4902986;29;20395;-38
2023/04/30 04:39:36;;;;;;;2.85;1.33;;;17.80;1.00;;;;;;4901802;29;20147;-40
2023/04/30 04:42:03;;;;;;;3.28;1.65;;;17.80;1.00;;;;;;4896659;29;20049;-39
2023/04/30 04:44:31;;;;;;;2.33;1.50;;;17.80;1.00;;;;;;4897848;29;20069;-39
2023/04/30 04:46:58;;;;;;;2.53;1.35;;;17.70;1.00;;;;;;4901617;29;20072;-39
2023/04/30 04:49:24;;;;;;;2.13;1.38;;;17.70;1.00;;;;;;4901526;29;20044;-39
2023/04/30 04:51:51;;;;;;;3.22;1.50;;;17.70;1.00;;;;;;4903085;29;20501;-41
2023/04/30 04:56:56;;;;;;;3.75;1.55;;;17.70;1.00;;;;;;4870754;29;20433;-39
2023/04/30 04:59:23;;;;;;;3.50;1.67;;;17.70;1.00;;;;;;4887243;29;20041;-39
2023/04/30 05:01:50;;;;;;;2.47;1.58;;;17.70;1.00;;;;;;4879082;29;20076;-39
2023/04/30 05:04:17;;;;;;;2.88;1.98;;;17.70;1.00;;;;;;4853694;29;20506;-41
2023/04/30 05:06:45;;;;;;;2.67;1.67;;;17.70;1.00;;;;;;4860802;29;20041;-39
2023/04/30 05:09:12;;;;;;;2.15;1.33;;;17.70;1.00;;;;;;4861693;29;20050;-39
2023/04/30 05:11:40;;;;;;;3.55;1.92;;;17.70;1.00;;;;;;4863192;29;20037;-40
2023/04/30 05:14:07;;;;;;;4.38;2.08;;;17.70;1.00;;;;;;4851907;29;20044;-39
2023/04/30 05:16:33;;;;;;;3.33;1.85;;;17.70;1.00;;;;;;4853342;29;20084;-39
2023/04/30 05:19:00;;;;;;;2.83;1.60;;;17.70;1.00;;;;;;4854517;29;20093;-39
2023/04/30 05:21:28;;;;;;;2.42;1.25;;;17.70;1.00;;;;;;4861404;29;20128;-39
2023/04/30 05:23:55;;;;;;;2.15;1.33;;;17.70;1.00;;;;;;4860474;29;20038;-39
2023/04/30 05:26:23;;;;;;;2.88;1.60;;;17.70;1.00;;;;;;4852275;29;20093;-39
2023/04/30 05:28:51;;;;;;;4.15;1.70;;;17.70;1.00;;;;;;4849304;29;20502;-39
2023/04/30 05:31:18;;;;;;;4.30;2.00;;;17.70;1.00;;;;;;4853022;29;20116;-42
2023/04/30 05:33:47;;;;;;;3.13;1.45;;;17.70;1.00;;;;;;4858769;29;20058;-40
2023/04/30 05:36:13;;;;;;;3.28;1.50;;;17.70;1.00;;;;;;4854439;29;20060;-39
2023/04/30 05:38:41;;;;;;;2.50;1.33;;;17.70;1.00;;;;;;4860603;29;20042;-41
2023/04/30 05:41:10;;;;;;;2.95;1.63;;;17.70;1.00;;;;;;4860131;29;20040;-39
2023/04/30 05:43:37;;;;;;;7.35;2.95;;;17.70;1.00;;;;;;4850914;29;20038;-42
2023/04/30 05:46:04;;;;;;;12.38;4.05;;;17.70;1.00;;;;;;4863263;29;20101;-39
2023/04/30 05:48:30;;;;;;;9.00;3.65;;;17.60;1.00;;;;;;4863932;29;20379;-43
2023/04/30 05:50:57;;;;;;;5.80;3.88;;;17.50;1.00;;;;;;4852786;29;20046;-39
2023/04/30 05:53:24;;;;;;;8.85;3.80;;;17.40;1.00;;;;;;4859247;29;20045;-39
2023/04/30 05:55:51;;;;;;;11.10;3.38;;;17.40;1.00;;;;;;4967595;23;20384;-39
2023/04/30 05:58:18;;;;;;;4.72;3.38;;;17.30;1.00;;;;;;4888784;29;20041;-39
2023/04/30 06:00:49;;;;;;;6.50;3.75;;;17.30;1.00;;;;;;4897660;29;20048;-41
2023/04/30 06:03:16;;;;;;;8.90;3.17;;;17.20;1.00;;;;;;4894911;29;20044;-38
2023/04/30 06:05:44;;;;;;;6.95;3.90;;;17.20;1.00;;;;;;4891552;29;20105;-39
2023/04/30 06:08:11;;;;;;;6.53;3.13;;;17.10;1.00;;;;;;4889108;29;20123;-39
2023/04/30 06:10:38;;;;;;;4.60;2.70;;;17.10;1.00;;;;;;4882783;29;20033;-39
2023/04/30 06:13:05;;;;;;;8.02;3.60;;;17.10;1.00;;;;;;4893519;29;20047;-39
2023/04/30 06:15:32;;;;;;;4.85;2.45;;;17.10;1.00;;;;;;4900672;29;20068;-39
2023/04/30 06:17:59;;;;;;;5.78;2.33;;;17.10;1.00;;;;;;4897123;29;20036;-38
2023/04/30 06:20:26;;;;;;;5.80;2.55;;;17.10;1.00;;;;;;4904657;29;20470;-39
2023/04/30 06:22:53;;;;;;;8.05;1.83;;;17.00;1.00;;;;;;4904564;29;20044;-39
2023/04/30 06:25:20;;;;;;;4.68;2.05;;;17.00;1.00;;;;;;4895712;29;20053;-38
2023/04/30 06:27:46;;;;;;;3.78;1.38;;;17.00;1.00;;;;;;4940486;23;20052;-39
2023/04/30 06:30:13;;;;;;;3.53;1.55;;;17.00;1.00;;;;;;4881725;29;20049;-38
2023/04/30 06:32:40;;;;;;;3.78;1.80;;;17.10;1.00;;;;;;4881549;29;20059;-41
2023/04/30 06:35:07;;;;;;;4.78;1.80;;;17.10;1.00;;;;;;4881597;29;20454;-38
2023/04/30 06:37:36;;;;;;;5.13;1.65;;;17.00;1.00;;;;;;4882131;29;20129;-39
2023/04/30 06:40:04;;;;;;;4.65;1.38;;;17.10;1.00;;;;;;4866577;29;20045;-39
2023/04/30 06:42:33;;;;;;;3.28;1.92;;;17.10;1.00;;;;;;4873735;29;20052;-39
2023/04/30 06:45:01;;;;;;;4.80;1.33;;;17.10;1.00;;;;;;4880765;29;20073;-40
2023/04/30 06:47:33;;;;;;;6.57;1.13;;;17.10;1.00;;;;;;4881188;29;20045;-39
2023/04/30 06:50:00;;;;;;;3.20;1.20;;;17.10;1.00;;;;;;4878524;29;20109;-39
2023/04/30 06:52:30;;;;;;;4.07;1.10;;;17.10;1.00;;;;;;4869499;29;20041;-39
2023/04/30 06:54:56;;;;;;;5.30;1.05;;;17.10;1.00;;;;;;4880437;29;20045;-42
2023/04/30 06:57:24;;;;;;;5.68;1.73;;;17.10;1.00;;;;;;4939017;23;20044;-40
2023/04/30 06:59:51;;;;;;;4.90;0.82;;;17.10;1.00;;;;;;4896973;29;20072;-38
2023/04/30 07:02:18;;;;;;;6.05;0.98;;;17.10;1.00;;;;;;4891833;29;20059;-39
2023/04/30 07:04:48;;;;;;;7.60;1.85;;;17.10;1.00;;;;;;4892503;29;20102;-42
2023/04/30 07:07:15;;;;;;;5.20;1.23;;;17.10;1.00;;;;;;4903592;29;20382;-39
2023/04/30 07:09:42;;;;;;;7.57;0.98;;;17.10;1.00;;;;;;4901127;29;20076;-39
2023/04/30 07:12:10;;;;;;;3.25;1.35;;;17.10;1.00;;;;;;4897931;29;20112;-39
2023/04/30 07:14:37;;;;;;;4.10;1.00;;;17.10;1.00;;;;;;4899113;29;20531;-40
2023/04/30 07:17:04;;;;;;;5.38;0.98;;;17.10;1.00;;;;;;4899268;29;20047;-39
2023/04/30 07:19:31;;;;;;;4.13;1.58;;;17.10;1.00;;;;;;4899552;29;20052;-39
2023/04/30 07:21:58;;;;;;;12.73;1.27;;;17.10;1.00;;;;;;4899246;29;20068;-40
2023/04/30 07:24:25;;;;;;;3.28;0.82;;;17.10;1.00;;;;;;4889872;29;20044;-41
2023/04/30 07:26:52;;;;;;;3.95;0.95;;;17.10;1.00;;;;;;4898926;29;20179;-39
2023/04/30 07:29:18;;;;;;;3.58;1.00;;;17.10;1.00;;;;;;5198217;23;20076;-39
2023/04/30 07:31:45;;;;;;;3.22;0.77;;;17.10;1.00;;;;;;4880188;29;20553;-39
2023/04/30 07:34:12;;;;;;;3.90;0.90;;;17.10;1.00;;;;;;4879795;29;20043;-39
2023/04/30 07:36:39;;;;;;;2.75;0.95;;;17.10;1.00;;;;;;4880174;29;20489;-40
2023/04/30 07:39:06;;;;;;;5.88;0.93;;;17.10;1.00;;;;;;4876637;29;20098;-39
2023/04/30 07:41:33;;;;;;;5.30;0.85;;;17.10;1.00;;;;;;4875790;29;20049;-39
2023/04/30 07:44:00;;;;;;;3.28;0.95;;;17.10;1.00;;;;;;4879228;29;20051;-40
2023/04/30 07:46:27;;;;;;;2.83;0.80;;;17.10;1.00;;;;;;4879376;29;20045;-39
2023/04/30 07:48:54;;;;;;;2.40;0.50;;;17.10;1.00;;;;;;4879469;29;20045;-39
2023/04/30 07:51:21;;;;;;;2.65;0.75;;;17.10;1.00;;;;;;4879861;29;20041;-39
2023/04/30 07:53:47;;;;;;;3.67;1.38;;;17.20;1.00;;;;;;4879276;29;20091;-39
2023/04/30 07:56:14;;;;;;;2.95;1.00;;;17.10;1.00;;;;;;4879474;29;20051;-42
2023/04/30 07:58:41;;;;;;;4.10;0.90;;;17.10;1.00;;;;;;4879493;29;20059;-40
2023/04/30 08:01:08;;;;;;;11.52;1.02;;;17.10;1.00;;;;;;4873956;29;20112;-40
2023/04/30 08:03:35;;;;;;;5.55;1.05;;;17.20;1.00;;;;;;4872721;29;20407;-39
2023/04/30 08:06:03;;;;;;;4.82;1.10;;;17.10;1.00;;;;;;4878276;29;20558;-40
2023/04/30 08:08:30;;;;;;;9.90;1.45;;;17.20;1.00;;;;;;4878695;29;20123;-40
2023/04/30 08:10:57;;;;;;;8.48;1.58;;;17.10;1.00;;;;;;4872430;29;20059;-38
2023/04/30 08:13:24;;;;;;;6.97;1.52;;;17.10;1.00;;;;;;4874459;29;20458;-38
2023/04/30 08:15:51;;;;;;;5.55;1.20;;;17.10;1.00;;;;;;4876959;29;20405;-39
2023/04/30 08:18:17;;;;;;;3.90;1.40;;;17.10;1.00;;;;;;4879774;29;20045;-39
2023/04/30 08:20:44;;;;;;;7.50;1.83;;;17.10;1.00;;;;;;4876722;29;20053;-41
2023/04/30 08:23:11;;;;;;;5.95;1.33;;;17.10;1.00;;;;;;4879508;29;20513;-39
2023/04/30 08:25:38;;;;;;;4.85;1.60;;;17.10;1.00;;;;;;4877993;29;20093;-39
2023/04/30 08:28:05;;;;;;;9.23;2.00;;;17.10;1.00;;;;;;4878485;29;20084;-39
2023/04/30 08:30:35;;;;;;;3.80;1.48;;;17.10;1.00;;;;;;4877303;29;20473;-39
2023/04/30 08:33:02;;;;;;;3.80;2.00;;;17.00;1.00;;;;;;4875032;29;20045;-39
2023/04/30 08:35:29;;;;;;;5.97;2.05;;;17.00;1.00;;;;;;4879218;29;20049;-38
2023/04/30 08:37:57;;;;;;;3.63;1.60;;;17.00;1.00;;;;;;4883005;29;20605;-38
2023/04/30 08:40:25;;;;;;;5.63;1.42;;;17.00;1.00;;;;;;4882103;29;20037;-39
2023/04/30 08:43:14;;;;;;;4.80;1.40;;;17.00;1.00;;;;;;4879331;29;20078;-39
2023/04/30 08:45:41;;;;;;;6.35;1.80;;;17.00;1.00;;;;;;4879362;29;20044;-38
2023/04/30 08:48:15;;;;;;;7.57;1.65;;;17.00;1.00;;;;;;4876589;29;20048;-40
2023/04/30 08:50:42;;;;;;;5.55;1.85;;;17.00;1.00;;;;;;4874553;29;20045;-38
2023/04/30 08:53:10;;;;;;;7.90;2.22;;;17.00;1.00;;;;;;4872640;29;20503;-38
2023/04/30 08:55:38;;;;;;;14.73;2.42;;;17.00;1.00;;;;;;4878249;29;20045;-39
2023/04/30 08:58:07;;;;;;;6.28;1.88;;;17.00;1.00;;;;;;4872777;29;20546;-38
2023/04/30 09:00:37;;;;;;;3.33;1.65;;;16.90;1.00;;;;;;4878753;29;20097;-39
2023/04/30 09:03:05;;;;;;;5.90;1.77;;;16.90;1.00;;;;;;4874403;29;20045;-39
2023/04/30 09:05:32;;;;;;;3.75;1.75;;;16.90;1.00;;;;;;4876585;29;20075;-39
2023/04/30 09:07:58;;;;;;;3.65;1.60;;;17.00;1.00;;;;;;4878530;29;20107;-38
2023/04/30 09:10:33;;;;;;;5.65;2.00;;;17.00;1.00;;;;;;4879059;29;20093;-42
2023/04/30 09:13:06;;;;;;;3.13;1.35;;;17.00;1.00;;;;;;4879448;29;20037;-39
2023/04/30 09:15:35;;;;;;;6.35;1.67;;;17.00;1.00;;;;;;4877313;29;20053;-38
2023/04/30 09:18:16;;;;;;;8.68;2.63;;;17.00;1.00;;;;;;4883318;29;20075;-38
2023/04/30 09:20:55;;;;;;;8.70;1.63;;;17.00;1.00;;;;;;4885710;29;20052;-38
2023/04/30 09:23:22;;;;;;;8.38;1.63;;;17.00;1.00;;;;;;4882228;29;20682;-39
2023/04/30 09:25:49;;;;;;;5.28;1.63;;;16.90;1.00;;;;;;4883612;29;20045;-38
2023/04/30 09:28:17;;;;;;;5.88;1.48;;;17.00;1.00;;;;;;4886436;29;20099;-39
2023/04/30 09:30:44;;;;;;;2.75;1.15;;;17.00;1.00;;;;;;4886911;29;20037;-39
2023/04/30 09:33:11;;;;;;;5.38;1.98;;;16.90;1.00;;;;;;4901149;23;20409;-39
2023/04/30 09:35:40;;;;;;;3.30;1.73;;;16.90;1.00;;;;;;4899639;29;20079;-38
2023/04/30 09:38:23;;;;;;;6.68;1.90;;;16.90;1.00;;;;;;4897257;29;20040;-38
2023/04/30 09:40:50;;;;;;;5.93;1.70;;;16.90;1.00;;;;;;4903920;29;20040;-39
2023/04/30 09:43:17;;;;;;;10.25;2.15;;;16.90;1.00;;;;;;4897548;29;20112;-39
2023/04/30 09:45:47;;;;;;;4.28;1.55;;;16.90;1.00;;;;;;4906097;29;20048;-39
2023/04/30 09:48:31;;;;;;;6.43;1.30;;;17.00;1.00;;;;;;4905896;29;20552;-38
2023/04/30 09:51:02;;;;;;;3.22;1.65;;;17.00;1.00;;;;;;4897029;29;20048;-38
2023/04/30 09:53:29;;;;;;;4.22;1.67;;;17.00;1.00;;;;;;4904392;29;20064;-40
2023/04/30 09:55:58;;;;;;;6.38;1.50;;;17.00;1.00;;;;;;4906722;29;20041;-37
2023/04/30 09:58:27;;;;;;;2.85;1.45;;;17.00;1.00;;;;;;4901648;29;20068;-39
2023/04/30 10:00:58;;;;;;;6.25;1.95;;;17.00;1.00;;;;;;4904182;29;20400;-38
2023/04/30 10:03:24;;;;;;;4.03;3.13;;;17.00;1.00;;;;;;5157834;23;20053;-39
2023/04/30 10:05:52;;;;;;;4.28;2.25;;;17.00;1.00;;;;;;4898460;29;20078;-39
2023/04/30 10:08:30;;;;;;;1.88;0.98;;;17.00;1.00;;;;;;4892495;29;20041;-40
2023/04/30 10:11:02;;;;;;;4.32;1.77;;;17.00;1.00;;;;;;4889741;29;20128;-39
2023/04/30 10:13:40;;;;;;;7.28;1.27;;;17.10;1.00;;;;;;4889594;29;20440;-39
2023/04/30 10:16:17;;;;;;;8.57;1.67;;;17.10;1.00;;;;;;4889947;29;20500;-39
2023/04/30 10:18:47;;;;;;;11.30;1.50;;;17.10;1.00;;;;;;4900539;29;20040;-39
2023/04/30 10:21:16;;;;;;;4.45;1.50;;;17.10;1.00;;;;;;4880169;29;20092;-39
2023/04/30 10:23:43;;;;;;;4.53;1.50;;;17.10;1.00;;;;;;4901388;29;20045;-39
2023/04/30 10:26:15;;;;;;;3.80;1.67;;;17.10;1.00;;;;;;4902761;29;20114;-38
2023/04/30 10:28:42;;;;;;;6.88;2.22;;;17.10;1.00;;;;;;4902417;29;20053;-39
2023/04/30 10:31:10;;;;;;;5.60;2.15;;;17.20;1.00;;;;;;4892110;29;20100;-39
2023/04/30 10:33:53;;;;;;;8.18;1.83;;;17.20;1.00;;;;;;4900861;29;20128;-39
2023/04/30 10:36:27;;;;;;;4.75;1.42;;;17.20;1.00;;;;;;5118381;23;20056;-39
2023/04/30 10:38:54;;;;;;;6.90;2.03;;;17.20;1.00;;;;;;4881497;29;20113;-39
2023/04/30 10:41:21;;;;;;;4.20;1.58;;;17.20;1.00;;;;;;4869518;29;20036;-39
2023/04/30 10:43:48;;;;;;;3.10;1.60;;;17.20;1.00;;;;;;4884351;29;20049;-38
2023/04/30 10:46:22;;;;;;;3.80;1.55;;;17.20;1.00;;;;;;4876677;29;20037;-39
2023/04/30 10:48:53;;;;;;;4.68;1.33;;;17.20;1.00;;;;;;4884452;29;20045;-39
2023/04/30 10:51:21;;;;;;;5.07;1.60;;;17.20;1.00;;;;;;4884811;29;20120;-39
2023/04/30 10:53:53;;;;;;;2.35;1.20;;;17.20;1.00;;;;;;4875797;29;20481;-40
2023/04/30 10:56:30;;;;;;;7.53;1.50;;;17.20;1.00;;;;;;4876159;29;20065;-39
2023/04/30 10:59:01;;;;;;;4.15;1.38;;;17.20;1.00;;;;;;4881210;29;20049;-39
2023/04/30 11:01:29;;;;;;;3.22;1.58;;;17.20;1.00;;;;;;4878020;29;20487;-39
2023/04/30 11:04:05;;;;;;;4.50;1.40;;;17.20;1.00;;;;;;4879600;29;20045;-39
2023/04/30 11:07:02;;;;;;;2.58;1.58;;;17.30;1.00;;;;;;4884241;29;20504;-39
2023/04/30 11:09:40;;;;;;;2.47;1.52;;;17.30;1.00;;;;;;4992070;23;20055;-38
2023/04/30 11:12:18;;;;;;;6.20;1.33;;;17.30;1.00;;;;;;4892833;29;20048;-38
2023/04/30 11:14:45;;;;;;;4.00;1.33;;;17.30;1.00;;;;;;4895783;29;20052;-38
2023/04/30 11:17:21;;;;;;;1.90;1.27;;;17.30;1.00;;;;;;4903111;29;20045;-38
2023/04/30 11:19:50;;;;;;;5.47;1.63;;;17.30;1.00;;;;;;4895686;29;20052;-39
2023/04/30 11:22:23;;;;;;;6.20;1.52;;;17.30;1.00;;;;;;4901392;29;20100;-38
2023/04/30 11:25:08;;;;;;;1.83;0.93;;;17.30;1.00;;;;;;4899329;29;20055;-39
2023/04/30 11:27:37;;;;;;;3.75;1.25;;;17.30;1.00;;;;;;4893095;29;20412;-40
2023/04/30 11:30:10;;;;;;;4.88;1.17;;;17.30;1.00;;;;;;4900279;29;20051;-38
2023/04/30 11:32:38;;;;;;;1.95;1.05;;;17.30;1.00;;;;;;4901095;29;20036;-38
2023/04/30 11:35:06;;;;;;;3.97;1.40;;;17.30;1.00;;;;;;4899116;29;20060;-40
2023/04/30 11:37:33;;;;;;;4.72;1.10;;;17.30;1.00;;;;;;4901102;29;20032;-39
2023/04/30 11:40:02;;;;;;;1.90;0.90;;;17.30;1.00;;;;;;4947894;23;20502;-39
2023/04/30 11:42:30;;;;;;;2.45;0.95;;;17.30;1.00;;;;;;4900398;29;20094;-38
2023/04/30 11:45:04;;;;;;;3.58;1.05;;;17.30;1.00;;;;;;4900404;29;20413;-38
2023/04/30 11:47:47;;;;;;;2.40;1.20;;;17.30;1.00;;;;;;4889668;29;20045;-38
2023/04/30 11:50:18;;;;;;;4.75;1.17;;;17.30;1.00;;;;;;4895845;29;20365;-40
2023/04/30 11:52:50;;;;;;;3.55;0.98;;;17.30;1.00;;;;;;4902848;29;20037;-38
2023/04/30 11:55:19;;;;;;;3.78;1.20;;;17.30;1.00;;;;;;4900768;29;20107;-40
2023/04/30 11:57:48;;;;;;;1.20;0.82;;;17.30;1.00;;;;;;4895141;29;20132;-38
2023/04/30 12:00:17;;;;;;;3.35;1.13;;;17.30;1.00;;;;;;4902170;29;20044;-38
2023/04/30 12:02:46;;;;;;;2.15;0.98;;;17.30;1.00;;;;;;4901951;29;20511;-38
2023/04/30 12:05:15;;;;;;;3.05;1.23;;;17.40;1.00;;;;;;4901289;29;20191;-38
2023/04/30 12:07:58;;;;;;;5.03;1.10;;;17.40;1.00;;;;;;4901045;29;20052;-39
2023/04/30 12:10:25;;;;;;;4.43;1.60;;;17.40;1.00;;;;;;4931601;23;20048;-39
2023/04/30 12:12:53;;;;;;;6.03;1.88;;;17.40;1.00;;;;;;4881790;29;20064;-39
2023/04/30 12:15:25;;;;;;;2.10;0.95;;;17.40;1.00;;;;;;4882793;29;20049;-39
2023/04/30 12:17:55;;;;;;;3.75;1.08;;;17.40;1.00;;;;;;4882746;29;20089;-39
2023/04/30 12:20:28;;;;;;;3.38;0.75;;;17.40;1.00;;;;;;4868360;29;20043;-39
2023/04/30 12:22:55;;;;;;;5.25;1.02;;;17.40;1.00;;;;;;4867903;29;20046;-39
2023/04/30 12:25:23;;;;;;;3.28;0.70;;;17.40;1.00;;;;;;4875312;29;20481;-39
2023/04/30 12:27:53;;;;;;;2.50;1.00;;;17.40;1.00;;;;;;4876736;29;20124;-39
2023/04/30 12:30:25;;;;;;;2.20;0.60;;;17.40;1.00;;;;;;4881877;29;20053;-39
2023/04/30 12:32:55;;;;;;;3.40;0.93;;;17.40;1.00;;;;;;4881978;29;20052;-39
2023/04/30 12:35:23;;;;;;;1.60;0.70;;;17.40;1.00;;;;;;4866423;29;20048;-39
2023/04/30 12:37:52;;;;;;;1.55;0.98;;;17.40;1.00;;;;;;4882791;29;20080;-39
2023/04/30 12:40:21;;;;;;;2.90;0.80;;;17.40;1.00;;;;;;4879204;29;20100;-39
2023/04/30 12:42:47;;;;;;;4.05;0.77;;;17.40;1.00;;;;;;4879298;29;20504;-39
2023/04/30 12:45:53;;;;;;;2.72;1.02;;;17.40;1.00;;;;;;4874038;29;20102;-39
2023/04/30 12:48:24;;;;;;;4.30;0.82;;;17.40;1.00;;;;;;4882652;29;20065;-39
2023/04/30 12:50:57;;;;;;;1.98;0.57;;;17.40;1.00;;;;;;4875816;29;20120;-39
2023/04/30 12:53:24;;;;;;;;;;;17.40;1.00;;;;;;4883382;29;20041;-39
2023/04/30 12:56:08;;;;;;;2.65;0.80;;;17.40;1.00;;;;;;4883452;29;19930;-39
2023/04/30 12:58:35;;;;;;;1.42;0.60;;;17.40;1.00;;;;;;4875185;29;20505;-40
2023/04/30 13:01:04;;;;;;;2.10;0.77;;;17.40;1.00;;;;;;4883669;29;20406;-39
2023/04/30 13:03:31;;;;;;;2.53;0.82;;;17.40;1.00;;;;;;4875943;29;20037;-39
2023/04/30 13:06:01;;;;;;;3.28;0.70;;;17.40;1.00;;;;;;4882784;29;20581;-39
2023/04/30 13:08:29;;;;;;;1.13;0.55;;;17.40;1.00;;;;;;4875521;29;20520;-39
2023/04/30 13:11:06;;;;;;;1.00;0.47;;;17.40;1.00;;;;;;5194864;23;20562;31
2023/04/30 13:13:35;;;;;;;1.38;0.63;;;17.40;1.00;;;;;;4829256;29;20058;-38